Terminal Aerodrome Forecast
Issued by NWS Twin Cities, MN

Home | Current Version | Previous Version | Graphics & Text | Print | Product List | Glossary On
Versions: 1 2 3 4 5 6 7 8 9 10 11 12 13
000
FTUS43 KMPX 221120
TAFSTC
TAF
KSTC 221120Z 2212/2312 31012KT P6SM SKC
     FM221400 31013G20KT P6SM SKC
     FM221800 31018G26KT P6SM FEW050 FEW250
     FM230100 32007KT P6SM SKC=

USA.gov is the U.S. government's official web portal to all federal, state and local government web resources and services.